sensor_id;sensor_type;location;lat;lon;timestamp;P1;durP1;ratioP1;P2;durP2;ratioP2
51981;SDS011;37998;53.416;6.730;2023-02-08T00:00:31;26.27;;;19.90;;
51981;SDS011;37998;53.416;6.730;2023-02-08T00:02:57;27.92;;;19.55;;
51981;SDS011;37998;53.416;6.730;2023-02-08T00:05:22;28.33;;;19.95;;
51981;SDS011;37998;53.416;6.730;2023-02-08T00:07:48;28.95;;;20.27;;
51981;SDS011;37998;53.416;6.730;2023-02-08T00:10:14;28.77;;;20.58;;
51981;SDS011;37998;53.416;6.730;2023-02-08T00:12:39;28.35;;;20.35;;
51981;SDS011;37998;53.416;6.730;2023-02-08T00:15:05;27.17;;;19.75;;
51981;SDS011;37998;53.416;6.730;2023-02-08T00:17:31;31.55;;;20.42;;
51981;SDS011;37998;53.416;6.730;2023-02-08T00:19:57;25.67;;;20.77;;
51981;SDS011;37998;53.416;6.730;2023-02-08T00:22:22;27.50;;;21.00;;
51981;SDS011;37998;53.416;6.730;2023-02-08T00:24:48;25.98;;;19.65;;
51981;SDS011;37998;53.416;6.730;2023-02-08T00:27:15;26.55;;;20.38;;
51981;SDS011;37998;53.416;6.730;2023-02-08T00:29:41;27.20;;;20.52;;
51981;SDS011;37998;53.416;6.730;2023-02-08T00:32:06;26.73;;;20.00;;
51981;SDS011;37998;53.416;6.730;2023-02-08T00:34:32;25.95;;;20.48;;
51981;SDS011;37998;53.416;6.730;2023-02-08T00:36:59;29.40;;;19.65;;
51981;SDS011;37998;53.416;6.730;2023-02-08T00:39:25;25.52;;;20.13;;
51981;SDS011;37998;53.416;6.730;2023-02-08T00:41:50;28.20;;;20.60;;
51981;SDS011;37998;53.416;6.730;2023-02-08T00:44:16;30.75;;;18.45;;
51981;SDS011;37998;53.416;6.730;2023-02-08T00:46:42;22.00;;;17.48;;
51981;SDS011;37998;53.416;6.730;2023-02-08T00:49:08;27.48;;;19.02;;
51981;SDS011;37998;53.416;6.730;2023-02-08T00:51:34;23.70;;;18.70;;
51981;SDS011;37998;53.416;6.730;2023-02-08T00:53:59;25.17;;;19.90;;
51981;SDS011;37998;53.416;6.730;2023-02-08T00:56:25;23.98;;;18.45;;
51981;SDS011;37998;53.416;6.730;2023-02-08T00:58:50;26.23;;;17.83;;
51981;SDS011;37998;53.416;6.730;2023-02-08T01:01:16;22.20;;;17.77;;
51981;SDS011;37998;53.416;6.730;2023-02-08T01:03:42;23.70;;;18.27;;
51981;SDS011;37998;53.416;6.730;2023-02-08T01:06:09;28.05;;;20.17;;
51981;SDS011;37998;53.416;6.730;2023-02-08T01:08:37;27.45;;;19.92;;
51981;SDS011;37998;53.416;6.730;2023-02-08T01:11:08;31.00;;;20.27;;
51981;SDS011;37998;53.416;6.730;2023-02-08T01:13:37;28.52;;;20.50;;
51981;SDS011;37998;53.416;6.730;2023-02-08T01:16:10;26.27;;;19.75;;
51981;SDS011;37998;53.416;6.730;2023-02-08T01:18:39;23.77;;;18.40;;
51981;SDS011;37998;53.416;6.730;2023-02-08T01:21:07;24.17;;;17.75;;
51981;SDS011;37998;53.416;6.730;2023-02-08T01:23:37;25.83;;;19.33;;
51981;SDS011;37998;53.416;6.730;2023-02-08T01:26:04;24.10;;;17.83;;
51981;SDS011;37998;53.416;6.730;2023-02-08T01:28:30;23.08;;;19.48;;
51981;SDS011;37998;53.416;6.730;2023-02-08T01:30:56;24.15;;;18.98;;
51981;SDS011;37998;53.416;6.730;2023-02-08T01:33:22;30.02;;;18.90;;
51981;SDS011;37998;53.416;6.730;2023-02-08T01:35:51;30.00;;;20.20;;
51981;SDS011;37998;53.416;6.730;2023-02-08T01:38:17;25.67;;;18.70;;
51981;SDS011;37998;53.416;6.730;2023-02-08T01:40:43;26.27;;;19.25;;
51981;SDS011;37998;53.416;6.730;2023-02-08T01:43:23;26.40;;;20.60;;
51981;SDS011;37998;53.416;6.730;2023-02-08T01:45:50;24.52;;;18.85;;
51981;SDS011;37998;53.416;6.730;2023-02-08T01:51:12;24.83;;;18.48;;
51981;SDS011;37998;53.416;6.730;2023-02-08T01:53:42;26.15;;;19.35;;
51981;SDS011;37998;53.416;6.730;2023-02-08T01:56:10;25.23;;;18.90;;
51981;SDS011;37998;53.416;6.730;2023-02-08T01:58:41;22.60;;;18.55;;
51981;SDS011;37998;53.416;6.730;2023-02-08T02:01:09;27.30;;;21.23;;
51981;SDS011;37998;53.416;6.730;2023-02-08T02:03:37;24.00;;;18.50;;
51981;SDS011;37998;53.416;6.730;2023-02-08T02:06:14;24.08;;;19.73;;
51981;SDS011;37998;53.416;6.730;2023-02-08T02:08:48;22.85;;;18.98;;
51981;SDS011;37998;53.416;6.730;2023-02-08T02:11:20;24.35;;;18.35;;
51981;SDS011;37998;53.416;6.730;2023-02-08T02:13:45;25.25;;;18.70;;
51981;SDS011;37998;53.416;6.730;2023-02-08T02:16:14;25.52;;;19.63;;
51981;SDS011;37998;53.416;6.730;2023-02-08T02:18:40;25.65;;;19.40;;
51981;SDS011;37998;53.416;6.730;2023-02-08T02:43:43;24.52;;;18.95;;
51981;SDS011;37998;53.416;6.730;2023-02-08T02:51:37;22.75;;;18.15;;
51981;SDS011;37998;53.416;6.730;2023-02-08T02:54:26;23.83;;;18.60;;
51981;SDS011;37998;53.416;6.730;2023-02-08T02:57:00;22.15;;;18.42;;
51981;SDS011;37998;53.416;6.730;2023-02-08T02:59:32;24.15;;;18.75;;
51981;SDS011;37998;53.416;6.730;2023-02-08T03:02:00;22.63;;;18.23;;
51981;SDS011;37998;53.416;6.730;2023-02-08T03:09:26;23.17;;;17.88;;
51981;SDS011;37998;53.416;6.730;2023-02-08T03:12:28;23.80;;;18.70;;
51981;SDS011;37998;53.416;6.730;2023-02-08T03:26:33;27.17;;;18.38;;
51981;SDS011;37998;53.416;6.730;2023-02-08T03:29:10;22.80;;;18.17;;
51981;SDS011;37998;53.416;6.730;2023-02-08T03:31:48;26.55;;;18.27;;
51981;SDS011;37998;53.416;6.730;2023-02-08T03:34:24;21.05;;;17.35;;
51981;SDS011;37998;53.416;6.730;2023-02-08T03:37:36;23.30;;;18.30;;
51981;SDS011;37998;53.416;6.730;2023-02-08T03:40:03;25.33;;;18.33;;
51981;SDS011;37998;53.416;6.730;2023-02-08T03:42:38;23.23;;;17.08;;
51981;SDS011;37998;53.416;6.730;2023-02-08T03:45:15;24.08;;;17.55;;
51981;SDS011;37998;53.416;6.730;2023-02-08T03:47:45;21.30;;;17.13;;
51981;SDS011;37998;53.416;6.730;2023-02-08T03:50:15;23.50;;;17.88;;
51981;SDS011;37998;53.416;6.730;2023-02-08T03:52:46;21.13;;;17.00;;
51981;SDS011;37998;53.416;6.730;2023-02-08T03:55:20;19.95;;;17.08;;
51981;SDS011;37998;53.416;6.730;2023-02-08T04:00:48;22.50;;;17.65;;
51981;SDS011;37998;53.416;6.730;2023-02-08T04:03:21;20.13;;;17.45;;
51981;SDS011;37998;53.416;6.730;2023-02-08T04:05:49;21.23;;;17.98;;
51981;SDS011;37998;53.416;6.730;2023-02-08T04:08:15;20.40;;;17.08;;
51981;SDS011;37998;53.416;6.730;2023-02-08T04:10:41;22.52;;;17.75;;
51981;SDS011;37998;53.416;6.730;2023-02-08T04:13:07;22.17;;;18.10;;
51981;SDS011;37998;53.416;6.730;2023-02-08T04:15:32;24.67;;;18.00;;
51981;SDS011;37998;53.416;6.730;2023-02-08T04:17:58;23.60;;;18.20;;
51981;SDS011;37998;53.416;6.730;2023-02-08T04:20:23;23.42;;;18.40;;
51981;SDS011;37998;53.416;6.730;2023-02-08T04:22:49;25.83;;;18.77;;
51981;SDS011;37998;53.416;6.730;2023-02-08T04:25:15;22.00;;;17.48;;
51981;SDS011;37998;53.416;6.730;2023-02-08T04:27:40;25.33;;;18.60;;
51981;SDS011;37998;53.416;6.730;2023-02-08T04:30:07;22.50;;;17.98;;
51981;SDS011;37998;53.416;6.730;2023-02-08T04:32:33;27.40;;;18.42;;
51981;SDS011;37998;53.416;6.730;2023-02-08T04:34:58;22.30;;;17.75;;
51981;SDS011;37998;53.416;6.730;2023-02-08T04:37:24;26.02;;;18.50;;
51981;SDS011;37998;53.416;6.730;2023-02-08T04:39:50;25.13;;;18.52;;
51981;SDS011;37998;53.416;6.730;2023-02-08T04:42:15;23.35;;;17.77;;
51981;SDS011;37998;53.416;6.730;2023-02-08T04:44:41;24.25;;;18.08;;
51981;SDS011;37998;53.416;6.730;2023-02-08T04:47:07;21.23;;;17.73;;
51981;SDS011;37998;53.416;6.730;2023-02-08T04:49:32;24.00;;;18.50;;
51981;SDS011;37998;53.416;6.730;2023-02-08T04:51:58;26.13;;;18.35;;
51981;SDS011;37998;53.416;6.730;2023-02-08T04:54:23;27.55;;;19.73;;
51981;SDS011;37998;53.416;6.730;2023-02-08T04:56:49;24.38;;;19.30;;
51981;SDS011;37998;53.416;6.730;2023-02-08T04:59:15;29.45;;;18.15;;
51981;SDS011;37998;53.416;6.730;2023-02-08T05:01:41;24.35;;;19.38;;
51981;SDS011;37998;53.416;6.730;2023-02-08T05:04:06;23.38;;;18.73;;
51981;SDS011;37998;53.416;6.730;2023-02-08T05:06:32;24.25;;;19.00;;
51981;SDS011;37998;53.416;6.730;2023-02-08T05:08:58;23.38;;;18.70;;
51981;SDS011;37998;53.416;6.730;2023-02-08T05:11:24;22.02;;;17.63;;
51981;SDS011;37998;53.416;6.730;2023-02-08T05:13:50;21.83;;;18.48;;
51981;SDS011;37998;53.416;6.730;2023-02-08T05:16:16;25.15;;;19.33;;
51981;SDS011;37998;53.416;6.730;2023-02-08T05:18:41;28.33;;;19.13;;
51981;SDS011;37998;53.416;6.730;2023-02-08T05:21:08;23.10;;;18.02;;
51981;SDS011;37998;53.416;6.730;2023-02-08T05:23:34;24.58;;;19.25;;
51981;SDS011;37998;53.416;6.730;2023-02-08T05:26:04;24.70;;;19.65;;
51981;SDS011;37998;53.416;6.730;2023-02-08T05:28:30;24.27;;;19.13;;
51981;SDS011;37998;53.416;6.730;2023-02-08T05:30:56;24.70;;;19.35;;
51981;SDS011;37998;53.416;6.730;2023-02-08T05:33:21;22.30;;;17.65;;
51981;SDS011;37998;53.416;6.730;2023-02-08T05:35:47;24.17;;;19.63;;
51981;SDS011;37998;53.416;6.730;2023-02-08T05:38:13;24.67;;;18.55;;
51981;SDS011;37998;53.416;6.730;2023-02-08T05:40:38;25.48;;;19.67;;
51981;SDS011;37998;53.416;6.730;2023-02-08T05:43:04;27.52;;;20.55;;
51981;SDS011;37998;53.416;6.730;2023-02-08T05:45:30;23.90;;;19.60;;
51981;SDS011;37998;53.416;6.730;2023-02-08T05:47:55;24.27;;;19.85;;
51981;SDS011;37998;53.416;6.730;2023-02-08T05:50:21;27.63;;;20.85;;
51981;SDS011;37998;53.416;6.730;2023-02-08T05:52:47;25.33;;;20.23;;
51981;SDS011;37998;53.416;6.730;2023-02-08T05:55:12;28.00;;;21.58;;
51981;SDS011;37998;53.416;6.730;2023-02-08T05:57:38;29.38;;;21.35;;
51981;SDS011;37998;53.416;6.730;2023-02-08T06:00:04;24.63;;;19.70;;
51981;SDS011;37998;53.416;6.730;2023-02-08T06:02:30;25.58;;;19.45;;
51981;SDS011;37998;53.416;6.730;2023-02-08T06:04:56;27.33;;;20.83;;
51981;SDS011;37998;53.416;6.730;2023-02-08T06:07:22;27.90;;;20.10;;
51981;SDS011;37998;53.416;6.730;2023-02-08T06:09:48;26.52;;;20.92;;
51981;SDS011;37998;53.416;6.730;2023-02-08T06:12:13;30.48;;;20.83;;
51981;SDS011;37998;53.416;6.730;2023-02-08T06:14:39;25.73;;;20.10;;
51981;SDS011;37998;53.416;6.730;2023-02-08T06:17:05;25.48;;;20.52;;
51981;SDS011;37998;53.416;6.730;2023-02-08T06:19:30;28.48;;;21.95;;
51981;SDS011;37998;53.416;6.730;2023-02-08T06:21:56;30.25;;;21.88;;
51981;SDS011;37998;53.416;6.730;2023-02-08T06:24:22;26.00;;;21.05;;
51981;SDS011;37998;53.416;6.730;2023-02-08T06:26:49;29.00;;;21.67;;
51981;SDS011;37998;53.416;6.730;2023-02-08T06:29:14;29.13;;;22.02;;
51981;SDS011;37998;53.416;6.730;2023-02-08T06:31:40;29.92;;;22.23;;
51981;SDS011;37998;53.416;6.730;2023-02-08T06:34:06;26.63;;;21.60;;
51981;SDS011;37998;53.416;6.730;2023-02-08T06:36:36;28.92;;;22.17;;
51981;SDS011;37998;53.416;6.730;2023-02-08T06:39:01;28.50;;;21.92;;
51981;SDS011;37998;53.416;6.730;2023-02-08T06:41:27;30.13;;;21.52;;
51981;SDS011;37998;53.416;6.730;2023-02-08T06:43:53;27.02;;;21.00;;
51981;SDS011;37998;53.416;6.730;2023-02-08T06:46:19;24.73;;;20.40;;
51981;SDS011;37998;53.416;6.730;2023-02-08T06:48:44;29.02;;;21.55;;
51981;SDS011;37998;53.416;6.730;2023-02-08T06:51:10;26.80;;;21.23;;
51981;SDS011;37998;53.416;6.730;2023-02-08T06:53:35;26.55;;;20.55;;
51981;SDS011;37998;53.416;6.730;2023-02-08T06:56:01;30.13;;;22.48;;
51981;SDS011;37998;53.416;6.730;2023-02-08T06:58:27;30.35;;;22.98;;
51981;SDS011;37998;53.416;6.730;2023-02-08T07:00:52;31.25;;;22.20;;
51981;SDS011;37998;53.416;6.730;2023-02-08T07:03:18;28.17;;;22.30;;
51981;SDS011;37998;53.416;6.730;2023-02-08T07:05:43;30.38;;;21.80;;
51981;SDS011;37998;53.416;6.730;2023-02-08T07:08:09;30.63;;;22.45;;
51981;SDS011;37998;53.416;6.730;2023-02-08T07:10:36;32.95;;;23.02;;
51981;SDS011;37998;53.416;6.730;2023-02-08T07:13:04;28.38;;;22.33;;
51981;SDS011;37998;53.416;6.730;2023-02-08T07:15:31;31.05;;;23.13;;
51981;SDS011;37998;53.416;6.730;2023-02-08T07:17:57;31.48;;;22.52;;
51981;SDS011;37998;53.416;6.730;2023-02-08T07:20:24;34.17;;;23.92;;
51981;SDS011;37998;53.416;6.730;2023-02-08T07:22:49;30.73;;;22.95;;
51981;SDS011;37998;53.416;6.730;2023-02-08T07:25:15;32.15;;;22.63;;
51981;SDS011;37998;53.416;6.730;2023-02-08T07:27:41;29.88;;;22.77;;
51981;SDS011;37998;53.416;6.730;2023-02-08T07:30:06;28.88;;;22.35;;
51981;SDS011;37998;53.416;6.730;2023-02-08T07:32:33;31.55;;;23.15;;
51981;SDS011;37998;53.416;6.730;2023-02-08T07:34:59;33.72;;;22.50;;
51981;SDS011;37998;53.416;6.730;2023-02-08T07:37:24;28.67;;;22.20;;
51981;SDS011;37998;53.416;6.730;2023-02-08T07:39:51;31.25;;;23.27;;
51981;SDS011;37998;53.416;6.730;2023-02-08T07:42:17;37.10;;;24.35;;
51981;SDS011;37998;53.416;6.730;2023-02-08T07:44:42;29.58;;;22.38;;
51981;SDS011;37998;53.416;6.730;2023-02-08T07:47:08;28.52;;;22.50;;
51981;SDS011;37998;53.416;6.730;2023-02-08T07:49:34;32.03;;;23.88;;
51981;SDS011;37998;53.416;6.730;2023-02-08T07:52:00;31.48;;;22.83;;
51981;SDS011;37998;53.416;6.730;2023-02-08T07:54:27;32.65;;;24.52;;
51981;SDS011;37998;53.416;6.730;2023-02-08T07:56:53;30.48;;;22.88;;
51981;SDS011;37998;53.416;6.730;2023-02-08T07:59:19;31.13;;;22.77;;
51981;SDS011;37998;53.416;6.730;2023-02-08T08:01:44;32.70;;;22.35;;
51981;SDS011;37998;53.416;6.730;2023-02-08T08:04:10;32.42;;;22.67;;
51981;SDS011;37998;53.416;6.730;2023-02-08T08:06:36;30.35;;;22.17;;
51981;SDS011;37998;53.416;6.730;2023-02-08T08:09:02;28.80;;;22.35;;
51981;SDS011;37998;53.416;6.730;2023-02-08T08:11:28;28.65;;;21.95;;
51981;SDS011;37998;53.416;6.730;2023-02-08T08:13:53;28.98;;;21.92;;
51981;SDS011;37998;53.416;6.730;2023-02-08T08:16:19;30.08;;;21.70;;
51981;SDS011;37998;53.416;6.730;2023-02-08T08:18:45;27.10;;;21.40;;
51981;SDS011;37998;53.416;6.730;2023-02-08T08:21:11;31.08;;;22.08;;
51981;SDS011;37998;53.416;6.730;2023-02-08T08:23:37;29.88;;;22.38;;
51981;SDS011;37998;53.416;6.730;2023-02-08T08:26:07;27.85;;;21.40;;
51981;SDS011;37998;53.416;6.730;2023-02-08T08:28:38;25.80;;;20.67;;
51981;SDS011;37998;53.416;6.730;2023-02-08T08:31:11;32.25;;;22.15;;
51981;SDS011;37998;53.416;6.730;2023-02-08T08:33:38;31.13;;;22.90;;
51981;SDS011;37998;53.416;6.730;2023-02-08T08:36:05;30.80;;;21.27;;
51981;SDS011;37998;53.416;6.730;2023-02-08T08:38:31;28.58;;;21.17;;
51981;SDS011;37998;53.416;6.730;2023-02-08T08:40:57;30.98;;;22.10;;
51981;SDS011;37998;53.416;6.730;2023-02-08T08:43:22;28.40;;;21.67;;
51981;SDS011;37998;53.416;6.730;2023-02-08T08:45:48;31.88;;;22.70;;
51981;SDS011;37998;53.416;6.730;2023-02-08T08:48:13;27.38;;;21.27;;
51981;SDS011;37998;53.416;6.730;2023-02-08T08:50:39;29.40;;;22.20;;
51981;SDS011;37998;53.416;6.730;2023-02-08T08:53:07;28.55;;;21.08;;
51981;SDS011;37998;53.416;6.730;2023-02-08T08:55:33;32.05;;;21.75;;
51981;SDS011;37998;53.416;6.730;2023-02-08T08:57:58;27.58;;;21.08;;
51981;SDS011;37998;53.416;6.730;2023-02-08T09:00:24;29.40;;;22.00;;
51981;SDS011;37998;53.416;6.730;2023-02-08T09:02:51;28.77;;;21.63;;
51981;SDS011;37998;53.416;6.730;2023-02-08T09:05:17;28.45;;;20.88;;
51981;SDS011;37998;53.416;6.730;2023-02-08T09:07:43;29.45;;;21.77;;
51981;SDS011;37998;53.416;6.730;2023-02-08T09:10:08;34.70;;;21.88;;
51981;SDS011;37998;53.416;6.730;2023-02-08T09:12:34;29.98;;;21.48;;
51981;SDS011;37998;53.416;6.730;2023-02-08T09:15:00;30.92;;;22.67;;
51981;SDS011;37998;53.416;6.730;2023-02-08T09:17:25;31.20;;;22.48;;
51981;SDS011;37998;53.416;6.730;2023-02-08T09:19:51;29.17;;;21.50;;
51981;SDS011;37998;53.416;6.730;2023-02-08T09:22:16;27.40;;;21.20;;
51981;SDS011;37998;53.416;6.730;2023-02-08T09:24:43;37.38;;;24.52;;
51981;SDS011;37998;53.416;6.730;2023-02-08T09:27:09;32.42;;;23.20;;
51981;SDS011;37998;53.416;6.730;2023-02-08T09:29:34;31.42;;;23.10;;
51981;SDS011;37998;53.416;6.730;2023-02-08T09:32:00;34.45;;;23.27;;
51981;SDS011;37998;53.416;6.730;2023-02-08T09:34:26;31.75;;;22.92;;
51981;SDS011;37998;53.416;6.730;2023-02-08T09:36:51;31.33;;;23.02;;
51981;SDS011;37998;53.416;6.730;2023-02-08T09:39:19;33.25;;;22.58;;
51981;SDS011;37998;53.416;6.730;2023-02-08T09:47:34;31.45;;;22.92;;
51981;SDS011;37998;53.416;6.730;2023-02-08T09:55:41;31.85;;;22.77;;
51981;SDS011;37998;53.416;6.730;2023-02-08T09:58:18;32.92;;;24.77;;
51981;SDS011;37998;53.416;6.730;2023-02-08T10:00:48;29.90;;;22.48;;
51981;SDS011;37998;53.416;6.730;2023-02-08T10:03:20;30.40;;;21.63;;
51981;SDS011;37998;53.416;6.730;2023-02-08T10:05:47;33.03;;;23.13;;
51981;SDS011;37998;53.416;6.730;2023-02-08T10:08:13;33.42;;;23.30;;
51981;SDS011;37998;53.416;6.730;2023-02-08T10:16:08;35.17;;;21.63;;
51981;SDS011;37998;53.416;6.730;2023-02-08T10:21:44;28.67;;;20.60;;
51981;SDS011;37998;53.416;6.730;2023-02-08T10:34:45;29.05;;;21.80;;
51981;SDS011;37998;53.416;6.730;2023-02-08T10:37:16;31.85;;;21.75;;
51981;SDS011;37998;53.416;6.730;2023-02-08T10:39:43;30.92;;;21.70;;
51981;SDS011;37998;53.416;6.730;2023-02-08T10:42:13;31.67;;;22.48;;
51981;SDS011;37998;53.416;6.730;2023-02-08T10:44:53;27.58;;;20.63;;
51981;SDS011;37998;53.416;6.730;2023-02-08T10:50:38;28.58;;;21.83;;
51981;SDS011;37998;53.416;6.730;2023-02-08T10:53:08;32.60;;;23.45;;
51981;SDS011;37998;53.416;6.730;2023-02-08T10:55:41;30.80;;;21.77;;
51981;SDS011;37998;53.416;6.730;2023-02-08T10:58:09;31.10;;;21.27;;
51981;SDS011;37998;53.416;6.730;2023-02-08T11:00:39;31.05;;;21.48;;
51981;SDS011;37998;53.416;6.730;2023-02-08T11:03:23;31.02;;;21.63;;
51981;SDS011;37998;53.416;6.730;2023-02-08T11:08:20;26.45;;;20.00;;
51981;SDS011;37998;53.416;6.730;2023-02-08T11:13:43;30.23;;;21.33;;
51981;SDS011;37998;53.416;6.730;2023-02-08T11:16:19;25.52;;;18.58;;
51981;SDS011;37998;53.416;6.730;2023-02-08T11:23:53;29.50;;;19.55;;
51981;SDS011;37998;53.416;6.730;2023-02-08T11:29:02;29.70;;;19.60;;
51981;SDS011;37998;53.416;6.730;2023-02-08T11:31:29;30.20;;;20.73;;
51981;SDS011;37998;53.416;6.730;2023-02-08T11:34:03;25.38;;;18.98;;
51981;SDS011;37998;53.416;6.730;2023-02-08T11:36:31;26.88;;;20.10;;
51981;SDS011;37998;53.416;6.730;2023-02-08T11:39:03;25.42;;;18.60;;
51981;SDS011;37998;53.416;6.730;2023-02-08T11:41:47;27.92;;;19.05;;
51981;SDS011;37998;53.416;6.730;2023-02-08T11:44:34;24.70;;;17.80;;
51981;SDS011;37998;53.416;6.730;2023-02-08T11:47:06;25.52;;;19.10;;
51981;SDS011;37998;53.416;6.730;2023-02-08T11:49:37;25.70;;;18.52;;
51981;SDS011;37998;53.416;6.730;2023-02-08T11:52:19;22.70;;;17.35;;
51981;SDS011;37998;53.416;6.730;2023-02-08T11:54:47;25.42;;;17.33;;
51981;SDS011;37998;53.416;6.730;2023-02-08T11:57:16;27.60;;;18.80;;
51981;SDS011;37998;53.416;6.730;2023-02-08T11:59:45;25.20;;;17.90;;
51981;SDS011;37998;53.416;6.730;2023-02-08T12:02:26;25.48;;;17.20;;
51981;SDS011;37998;53.416;6.730;2023-02-08T12:05:03;28.42;;;16.83;;
51981;SDS011;37998;53.416;6.730;2023-02-08T12:16:23;20.45;;;15.32;;
51981;SDS011;37998;53.416;6.730;2023-02-08T12:18:47;26.20;;;15.57;;
51981;SDS011;37998;53.416;6.730;2023-02-08T12:21:21;21.92;;;14.90;;
51981;SDS011;37998;53.416;6.730;2023-02-08T12:23:54;18.45;;;12.70;;
51981;SDS011;37998;53.416;6.730;2023-02-08T12:29:27;12.98;;;9.88;;
51981;SDS011;37998;53.416;6.730;2023-02-08T12:34:56;14.38;;;10.00;;
51981;SDS011;37998;53.416;6.730;2023-02-08T12:37:44;11.35;;;9.15;;
51981;SDS011;37998;53.416;6.730;2023-02-08T12:48:44;12.20;;;10.07;;
51981;SDS011;37998;53.416;6.730;2023-02-08T12:53:55;11.80;;;9.20;;
51981;SDS011;37998;53.416;6.730;2023-02-08T12:56:26;12.20;;;9.60;;
51981;SDS011;37998;53.416;6.730;2023-02-08T12:58:56;13.75;;;10.43;;
51981;SDS011;37998;53.416;6.730;2023-02-08T13:01:25;14.10;;;10.27;;
51981;SDS011;37998;53.416;6.730;2023-02-08T13:06:35;15.63;;;10.25;;
51981;SDS011;37998;53.416;6.730;2023-02-08T13:14:30;14.50;;;10.00;;
51981;SDS011;37998;53.416;6.730;2023-02-08T13:17:18;13.75;;;10.40;;
51981;SDS011;37998;53.416;6.730;2023-02-08T13:22:15;15.45;;;10.52;;
51981;SDS011;37998;53.416;6.730;2023-02-08T13:24:42;15.68;;;10.40;;
51981;SDS011;37998;53.416;6.730;2023-02-08T13:27:13;16.08;;;9.93;;
51981;SDS011;37998;53.416;6.730;2023-02-08T13:29:42;18.02;;;11.02;;
51981;SDS011;37998;53.416;6.730;2023-02-08T13:34:51;12.90;;;9.70;;
51981;SDS011;37998;53.416;6.730;2023-02-08T13:37:24;12.60;;;10.65;;
51981;SDS011;37998;53.416;6.730;2023-02-08T13:40:05;14.48;;;10.60;;
51981;SDS011;37998;53.416;6.730;2023-02-08T13:42:47;13.38;;;9.85;;
51981;SDS011;37998;53.416;6.730;2023-02-08T13:45:27;14.00;;;10.70;;
51981;SDS011;37998;53.416;6.730;2023-02-08T13:47:57;13.18;;;10.00;;
51981;SDS011;37998;53.416;6.730;2023-02-08T13:53:02;14.90;;;9.75;;
51981;SDS011;37998;53.416;6.730;2023-02-08T14:03:21;12.13;;;9.68;;
51981;SDS011;37998;53.416;6.730;2023-02-08T14:05:48;14.07;;;9.80;;
51981;SDS011;37998;53.416;6.730;2023-02-08T14:13:45;14.88;;;10.32;;
51981;SDS011;37998;53.416;6.730;2023-02-08T14:16:29;14.35;;;10.10;;
51981;SDS011;37998;53.416;6.730;2023-02-08T14:21:47;15.88;;;11.15;;
51981;SDS011;37998;53.416;6.730;2023-02-08T14:24:25;15.65;;;10.40;;
51981;SDS011;37998;53.416;6.730;2023-02-08T14:29:39;12.43;;;9.30;;
51981;SDS011;37998;53.416;6.730;2023-02-08T14:32:04;11.43;;;9.40;;
51981;SDS011;37998;53.416;6.730;2023-02-08T14:34:32;11.38;;;9.15;;
51981;SDS011;37998;53.416;6.730;2023-02-08T14:37:04;14.63;;;10.07;;
51981;SDS011;37998;53.416;6.730;2023-02-08T14:39:50;13.00;;;9.18;;
51981;SDS011;37998;53.416;6.730;2023-02-08T14:45:31;11.02;;;8.77;;
51981;SDS011;37998;53.416;6.730;2023-02-08T14:48:01;14.23;;;9.02;;
51981;SDS011;37998;53.416;6.730;2023-02-08T14:50:49;13.15;;;8.68;;
51981;SDS011;37998;53.416;6.730;2023-02-08T14:58:47;12.88;;;10.10;;
51981;SDS011;37998;53.416;6.730;2023-02-08T15:01:47;12.07;;;8.55;;
51981;SDS011;37998;53.416;6.730;2023-02-08T15:04:15;12.82;;;9.20;;
51981;SDS011;37998;53.416;6.730;2023-02-08T15:09:42;12.43;;;9.38;;
51981;SDS011;37998;53.416;6.730;2023-02-08T15:12:25;11.00;;;8.88;;
51981;SDS011;37998;53.416;6.730;2023-02-08T15:14:57;11.07;;;8.02;;
51981;SDS011;37998;53.416;6.730;2023-02-08T15:17:35;11.93;;;8.85;;
51981;SDS011;37998;53.416;6.730;2023-02-08T15:20:05;13.13;;;8.65;;
51981;SDS011;37998;53.416;6.730;2023-02-08T15:22:39;9.70;;;7.68;;
51981;SDS011;37998;53.416;6.730;2023-02-08T15:25:25;9.23;;;7.43;;
51981;SDS011;37998;53.416;6.730;2023-02-08T15:27:54;11.05;;;8.23;;
51981;SDS011;37998;53.416;6.730;2023-02-08T15:30:25;9.82;;;8.30;;
51981;SDS011;37998;53.416;6.730;2023-02-08T15:33:02;14.93;;;8.68;;
51981;SDS011;37998;53.416;6.730;2023-02-08T15:35:33;11.10;;;8.00;;
51981;SDS011;37998;53.416;6.730;2023-02-08T15:37:59;12.50;;;7.78;;
51981;SDS011;37998;53.416;6.730;2023-02-08T15:40:32;11.23;;;7.78;;
51981;SDS011;37998;53.416;6.730;2023-02-08T15:43:03;10.25;;;7.68;;
51981;SDS011;37998;53.416;6.730;2023-02-08T15:45:32;10.70;;;8.13;;
51981;SDS011;37998;53.416;6.730;2023-02-08T15:47:58;11.75;;;8.43;;
51981;SDS011;37998;53.416;6.730;2023-02-08T15:50:25;12.38;;;8.07;;
51981;SDS011;37998;53.416;6.730;2023-02-08T15:53:00;14.07;;;8.25;;
51981;SDS011;37998;53.416;6.730;2023-02-08T15:55:32;13.48;;;8.48;;
51981;SDS011;37998;53.416;6.730;2023-02-08T15:58:07;10.57;;;8.20;;
51981;SDS011;37998;53.416;6.730;2023-02-08T16:00:45;11.65;;;8.30;;
51981;SDS011;37998;53.416;6.730;2023-02-08T16:03:18;9.55;;;7.88;;
51981;SDS011;37998;53.416;6.730;2023-02-08T16:05:51;16.45;;;8.93;;
51981;SDS011;37998;53.416;6.730;2023-02-08T16:08:26;11.25;;;8.07;;
51981;SDS011;37998;53.416;6.730;2023-02-08T16:13:36;12.95;;;8.80;;
51981;SDS011;37998;53.416;6.730;2023-02-08T16:21:51;13.25;;;8.57;;
51981;SDS011;37998;53.416;6.730;2023-02-08T16:23:56;11.98;;;8.98;;
51981;SDS011;37998;53.416;6.730;2023-02-08T16:26:28;13.23;;;8.68;;
51981;SDS011;37998;53.416;6.730;2023-02-08T16:29:03;13.55;;;8.73;;
51981;SDS011;37998;53.416;6.730;2023-02-08T16:31:32;12.00;;;8.52;;
51981;SDS011;37998;53.416;6.730;2023-02-08T16:34:06;10.05;;;7.80;;
51981;SDS011;37998;53.416;6.730;2023-02-08T16:36:39;11.93;;;8.43;;
51981;SDS011;37998;53.416;6.730;2023-02-08T16:39:19;12.48;;;8.77;;
51981;SDS011;37998;53.416;6.730;2023-02-08T16:42:20;13.52;;;8.73;;
51981;SDS011;37998;53.416;6.730;2023-02-08T16:47:27;13.93;;;8.00;;
51981;SDS011;37998;53.416;6.730;2023-02-08T16:50:04;10.68;;;8.25;;
51981;SDS011;37998;53.416;6.730;2023-02-08T16:52:30;12.48;;;8.13;;
51981;SDS011;37998;53.416;6.730;2023-02-08T16:54:56;10.20;;;7.43;;
51981;SDS011;37998;53.416;6.730;2023-02-08T16:57:23;10.88;;;8.10;;
51981;SDS011;37998;53.416;6.730;2023-02-08T16:59:49;12.27;;;8.32;;
51981;SDS011;37998;53.416;6.730;2023-02-08T17:02:15;12.68;;;7.78;;
51981;SDS011;37998;53.416;6.730;2023-02-08T17:04:41;9.75;;;8.20;;
51981;SDS011;37998;53.416;6.730;2023-02-08T17:07:11;11.77;;;8.63;;
51981;SDS011;37998;53.416;6.730;2023-02-08T17:09:45;9.77;;;7.97;;
51981;SDS011;37998;53.416;6.730;2023-02-08T17:12:10;13.98;;;7.90;;
51981;SDS011;37998;53.416;6.730;2023-02-08T17:14:36;13.23;;;8.65;;
51981;SDS011;37998;53.416;6.730;2023-02-08T17:17:02;12.18;;;8.30;;
51981;SDS011;37998;53.416;6.730;2023-02-08T17:19:27;12.82;;;7.70;;
51981;SDS011;37998;53.416;6.730;2023-02-08T17:21:53;11.30;;;7.68;;
51981;SDS011;37998;53.416;6.730;2023-02-08T17:24:19;14.52;;;7.35;;
51981;SDS011;37998;53.416;6.730;2023-02-08T17:26:46;9.98;;;7.55;;
51981;SDS011;37998;53.416;6.730;2023-02-08T17:29:12;11.57;;;8.15;;
51981;SDS011;37998;53.416;6.730;2023-02-08T17:31:37;8.93;;;7.22;;
51981;SDS011;37998;53.416;6.730;2023-02-08T17:34:03;9.80;;;6.97;;